Aurora, Minnesota
Current Conditions -  °F | °C
As of 9:11 AM on Wednesday 26 Nov 2014 (Local Time) from KEVM Reporting Station
Light Snow Light Snow  
Wind Chill:   Ceiling: 3600
Heat Index: 16°   Visibility: 10mi
Dew Point: 10°   Wind: 5mph
Humidity: 79%   Direction: 360°N
Pressure: 30.18"   Gusts: NA
Location:  47.53°N, 92.24°W
Report Text: KEVM 261511Z AUTO 36004KT 10SM -SN SCT013 OVC036 M09/M12 A3018 RMK AO2
Loading
Personal Weather Stations






























Interactive Weather Map New forecast layout! Learn more

10-Day Weather Forecast

Advertisements
Track Severe Weather on mobile